• Join FlightAware (Why Join?)
  • Login
  • US Flag 
03:51PM EDT


 

Airport Tracker/Info


-or-


 

Live Flight TrackerFlight Track Log ✈ UAL4700 ✈ 04-May-2013 ✈ KEWR - KCLT

Flight Track Log - Related Links

Times and Time Zones

All times are in EDT time to prevent confusion due to time zone crossing. See the UAL4700 flight status page for this flight to view local times or setup timezone preferences in your user account.

Time Position Orientation Groundspeed Altitude Reporting Facility
EDT Latitude Longitude Course Direction KTS MPH feet Rate Location/Type
09:23PM 40.6333 -74.2000 217° Southwest 200 230 2,400  Level New York TRACON
09:24PM 40.5667 -74.2333 201° Southwest 254 292 2,500 600 Climbing New York TRACON
09:25PM 40.5585 -74.5132 250° West  Level FlightAware Approximate
09:25PM 40.5000 -74.2833 210° Southwest 272 313 3,700  Level New York TRACON
09:26PM 40.5239 -74.6401 250° West  Level FlightAware Approximate
09:26PM 40.4667 -74.3500 237° Southwest 294 338 5,800  Level New York TRACON
09:27PM 40.4842 -74.7642 246° West  Level FlightAware Approximate
09:27PM 40.5167 -74.4167 315° West 260 299 6,000  Level New York TRACON
09:28PM 40.4405 -74.8857 237° Southwest  Level FlightAware Approximate
09:28PM 40.5833 -74.4667 330° Northwest 290 334 8,700  Level New York TRACON
09:29PM 40.3881 -74.9952 217° Southwest  Level FlightAware Approximate
09:30PM 40.5758 -74.6236 266° West 302 348 11,900  Level New York Center
09:31PM 40.5350 -74.7222 241° Southwest 329 379 13,400 1,740 Climbing New York Center
09:32PM 40.4744 -74.8525 239° Southwest 368 423 15,500 1,800 Climbing New York Center
09:33PM 40.4203 -74.9692 239° Southwest 374 430 17,100 1,500 Climbing New York Center
09:34PM 40.3564 -75.0633 228° Southwest 379 436 18,500 1,500 Climbing New York Center
09:35PM 40.2858 -75.1653 228° Southwest 384 442 20,100 1,500 Climbing New York Center
09:36PM 40.2089 -75.2717 227° Southwest 395 455 21,600 1,380 Climbing New York Center
09:37PM 40.1339 -75.3781 227° Southwest 405 466 23,000 1,380 Climbing New York Center
09:38PM 40.0525 -75.4894 226° Southwest 411 473 24,400 1,320 Climbing New York Center
09:39PM 39.9731 -75.6006 227° Southwest 417 480 25,700 1,440 Climbing New York Center
09:40PM 39.8864 -75.7272 228° Southwest 417 480 27,300 1,440 Climbing New York Center
09:41PM 39.8147 -75.8436 231° Southwest 430 495 28,700 1,320 Climbing New York Center
09:42PM 39.7408 -75.9600 230° Southwest 425 489 30,000 1,320 Climbing New York Center
09:44PM 39.6353 -76.1222 230° Southwest 419 482 32,000 1,260 Climbing Washington Center
09:45PM 39.5639 -76.2347 231° Southwest 419 482 33,300 1,260 Climbing Washington Center
09:46PM 39.4925 -76.3472 231° Southwest 419 482 34,600 1,320 Climbing Washington Center
09:47PM 39.4208 -76.4539 229° Southwest 414 476 35,900 660 Climbing Washington Center
09:48PM 39.3386 -76.5792 230° Southwest 407 468 36,000  Climbing Washington Center
09:49PM 39.2647 -76.6961 231° Southwest 418 481 36,000  Level Washington Center
09:50PM 39.1864 -76.8181 230° Southwest 432 497 36,000  Level Washington Center
09:51PM 39.1081 -76.9425 231° Southwest 438 504 36,000  Level Washington Center
09:52PM 39.0233 -77.0611 227° Southwest 450 518 36,000  Level Washington Center
09:53PM 38.9281 -77.1658 221° Southwest 450 518 36,000  Level Washington Center
09:54PM 38.8328 -77.2706 221° Southwest 455 524 36,000  Level Washington Center
09:55PM 38.7356 -77.3775 221° Southwest 455 524 36,000  Level Washington Center
09:56PM 38.6506 -77.4683 220° Southwest 460 529 36,000  Level Washington Center
09:57PM 38.5572 -77.5722 221° Southwest 460 529 36,000  Level Washington Center
09:58PM 38.4597 -77.6758 220° Southwest 460 529 36,000  Level Washington Center
09:59PM 38.3661 -77.7789 221° Southwest 460 529 36,000  Level Washington Center
10:00PM 38.2725 -77.8794 220° Southwest 460 529 36,000  Level Washington Center
10:01PM 38.1767 -77.9822 220° Southwest 460 529 36,000  Level Washington Center
10:02PM 38.0786 -78.0872 220° Southwest 465 535 36,000  Level Washington Center
10:03PM 37.9886 -78.1897 222° Southwest 458 527 36,000  Level Washington Center
10:04PM 37.8947 -78.2969 222° Southwest 453 521 36,000  Level Washington Center
10:05PM 37.8006 -78.3986 220° Southwest 448 516 36,000  Level Washington Center
10:06PM 37.6997 -78.5103 221° Southwest 448 516 36,000  Level Washington Center
10:07PM 37.6075 -78.6144 222° Southwest 448 516 36,000  Level Washington Center
10:08PM 37.5153 -78.7156 221° Southwest 448 516 36,000  Level Washington Center
10:09PM 37.4208 -78.8161 220° Southwest 448 516 36,000  Level Washington Center
10:10PM 37.3328 -78.9092 220° Southwest 448 516 36,000  Level Washington Center
10:11PM 37.2422 -79.0094 221° Southwest 448 516 36,000  Level Washington Center
10:12PM 37.1475 -79.1122 221° Southwest 448 516 36,000 -360 Level Washington Center
10:13PM 37.0547 -79.2147 221° Southwest 448 516 35,300 -1,080 Descending Washington Center
10:14PM 36.9661 -79.3119 221° Southwest 448 516 33,900 -1,500 Descending Washington Center
10:16PM 36.7656 -79.5222 220° Southwest 442 509 30,700 -1,500 Descending Atlanta Center
10:17PM 36.6714 -79.6258 221° Southwest 447 514 29,300 -1,800 Descending Atlanta Center
10:18PM 36.5669 -79.7378 221° Southwest 447 514 27,200 -2,040 Descending Atlanta Center
10:19PM 36.4744 -79.8356 220° Southwest 447 514 25,300 -2,040 Descending Atlanta Center
10:20PM 36.3817 -79.9308 220° Southwest 442 509 23,200 -1,680 Descending Atlanta Center
10:21PM 36.2950 -80.0203 220° Southwest 435 501 22,000 -1,020 Descending Atlanta Center
10:22PM 36.2117 -80.0911 214° Southwest 420 483 21,200 -1,500 Descending Atlanta Center
10:23PM 36.1225 -80.1675 215° Southwest 410 472 19,100 -1,980 Descending Atlanta Center
10:24PM 36.0331 -80.2464 216° Southwest 410 472 17,300 -2,160 Descending Atlanta Center
10:24PM 36.0006 -80.2786 219° Southwest 364 419 16,300 -2,640 Descending Atlanta Center
10:25PM 35.9417 -80.3250 213° Southwest 383 441 14,700 -1,920 Descending Atlanta Center
10:26PM 35.8642 -80.3900 214° Southwest 355 409 13,100 -1,080 Descending Atlanta Center
10:27PM 35.8053 -80.4439 217° Southwest 322 371 12,600 -840 Descending Atlanta Center
10:28PM 35.7319 -80.5033 213° Southwest 312 359 11,500 -840 Descending Atlanta Center
10:29PM 35.6525 -80.5706 215° Southwest 333 383 11,000 -300 Descending Atlanta Center
10:30PM 35.5769 -80.6300 213° Southwest 334 384 11,000  Level Atlanta Center
10:31PM 35.4894 -80.7050 215° Southwest 344 396 11,000  Level Atlanta Center
10:31PM 35.4631 -80.7292 217° Southwest 348 400 11,000  Level Atlanta Center
10:32PM 35.4119 -80.7694 213° Southwest 344 396 11,000 -600 Level Atlanta Center
10:33PM 35.3403 -80.8283 214° Southwest 325 374 10,100 -1,020 Descending Atlanta Center
10:33PM 35.3261 -80.8364 205° Southwest 273 314 9,700 -1,020 Descending Atlanta Center
10:34PM 35.2739 -80.8411 184° South 246 283 9,100 -660 Descending Atlanta Center
10:34PM 35.2447 -80.8369 173° South 238 274 9,000 -840 Descending Atlanta Center
10:35PM 35.1797 -80.8319 176° South 251 289 8,000 -1,260 Descending Atlanta Center
10:36PM 35.1192 -80.8267 176° South 251 289 6,700 -1,680 Descending Atlanta Center
10:37PM 35.0419 -80.8272 180° South 246 283 4,600 -1,320 Descending Atlanta Center
10:38PM 35.0214 -80.9142 254° West 282 325 4,000 -720 Descending Atlanta Center
10:39PM 35.0578 -80.9558 317° Northwest 228 262 3,300 -780 Descending Atlanta Center